Time;durP1;ratioP1;P1;durP2;ratioP2;P2;SDS_P1;SDS_P2;PMS_P1;PMS_P2;Temp;Humidity;BMP_temperature;BMP_pressure;BME280_temperature;BME280_humidity;BME280_pressure;Samples;Min_cycle;Max_cycle;Signal;HPM_P1;HPM_P2
2024/04/06 00:00:48;;;;;;;3.00;0.70;;;;;;;;;;6257675;28;20386;-82
2024/04/06 00:03:49;;;;;;;1.37;0.53;;;;;;;;;;6260934;28;20369;-82
2024/04/06 00:06:49;;;;;;;1.08;0.98;;;;;;;;;;6268714;28;20394;-83
2024/04/06 00:09:49;;;;;;;;;;;;;;;;;;6257379;28;20079;-82
2024/04/06 00:12:50;;;;;;;0.80;0.68;;;;;;;;;;6252383;28;19917;-82
2024/04/06 00:15:50;;;;;;;2.23;0.70;;;;;;;;;;6261947;28;20025;-83
2024/04/06 00:18:50;;;;;;;0.87;0.70;;;;;;;;;;6249481;28;20056;-79
2024/04/06 00:21:50;;;;;;;1.00;0.60;;;;;;;;;;6235757;28;20089;-79
2024/04/06 00:24:50;;;;;;;;;;;;;;;;;;6258793;28;20025;-79
2024/04/06 00:27:51;;;;;;;2.10;0.63;;;;;;;;;;6259496;28;19909;-79
2024/04/06 00:30:51;;;;;;;1.20;0.80;;;;;;;;;;6251014;28;20481;-79
2024/04/06 00:33:51;;;;;;;0.95;0.80;;;;;;;;;;6256095;28;20555;-79
2024/04/06 00:36:54;;;;;;;1.37;0.73;;;;;;;;;;6251549;28;20053;-78
2024/04/06 00:39:55;;;;;;;1.23;0.73;;;;;;;;;;6246639;28;20356;-80
2024/04/06 00:42:55;;;;;;;0.97;0.67;;;;;;;;;;6258615;28;20178;-79
2024/04/06 00:45:55;;;;;;;1.17;0.60;;;;;;;;;;6256006;28;20616;-79
2024/04/06 00:48:55;;;;;;;;;;;;;;;;;;6249824;28;20461;-78
2024/04/06 00:51:55;;;;;;;0.65;0.38;;;;;;;;;;6265484;28;19917;-79
2024/04/06 00:54:56;;;;;;;1.83;0.60;;;;;;;;;;6248596;28;20493;-79
2024/04/06 00:57:56;;;;;;;0.70;0.50;;;;;;;;;;6267219;28;20467;-79
2024/04/06 01:00:56;;;;;;;0.47;0.43;;;;;;;;;;6256126;28;20827;-79
2024/04/06 01:03:56;;;;;;;0.60;0.53;;;;;;;;;;6259322;28;20450;-79
2024/04/06 01:06:57;;;;;;;0.70;0.60;;;;;;;;;;6252947;28;20025;-78
2024/04/06 01:09:57;;;;;;;0.63;0.43;;;;;;;;;;6250275;28;20022;-79
2024/04/06 01:12:57;;;;;;;1.25;0.50;;;;;;;;;;6259635;28;20033;-80
2024/04/06 01:15:58;;;;;;;0.60;0.50;;;;;;;;;;6258127;28;20037;-79
2024/04/06 01:18:58;;;;;;;1.10;0.60;;;;;;;;;;6253955;28;20489;-79
2024/04/06 01:21:58;;;;;;;0.70;0.60;;;;;;;;;;6227783;28;20368;-79
2024/04/06 01:24:59;;;;;;;0.67;0.57;;;;;;;;;;6242832;28;20370;-79
2024/04/06 01:27:59;;;;;;;1.95;0.55;;;;;;;;;;6255489;28;20382;-79
2024/04/06 01:30:59;;;;;;;1.53;0.50;;;;;;;;;;6255144;28;20039;-79
2024/04/06 01:33:59;;;;;;;1.45;0.60;;;;;;;;;;6254793;28;20033;-79
2024/04/06 01:37:00;;;;;;;0.50;0.50;;;;;;;;;;6248458;28;20456;-79
2024/04/06 01:40:00;;;;;;;1.17;0.80;;;;;;;;;;6254804;28;20128;-79
2024/04/06 01:43:00;;;;;;;0.50;0.50;;;;;;;;;;6256087;28;20144;-80
2024/04/06 01:46:00;;;;;;;2.20;0.53;;;;;;;;;;6243751;28;20333;-79
2024/04/06 01:49:01;;;;;;;0.60;0.57;;;;;;;;;;6264525;28;20049;-79
2024/04/06 01:52:01;;;;;;;2.25;0.68;;;;;;;;;;6260152;28;20116;-78
2024/04/06 01:55:02;;;;;;;0.50;0.50;;;;;;;;;;6268684;28;20037;-79
2024/04/06 01:58:02;;;;;;;;;;;;;;;;;;6265410;28;20112;-78
2024/04/06 02:01:03;;;;;;;0.40;0.30;;;;;;;;;;6249725;28;19962;-79
2024/04/06 02:04:03;;;;;;;0.50;0.50;;;;;;;;;;6245926;28;20480;-79
2024/04/06 02:07:04;;;;;;;0.73;0.60;;;;;;;;;;6249544;28;20091;-79
2024/04/06 02:10:05;;;;;;;1.42;0.60;;;;;;;;;;6241627;28;20021;-79
2024/04/06 02:13:05;;;;;;;1.67;0.57;;;;;;;;;;6259037;28;20087;-80
2024/04/06 02:16:05;;;;;;;0.90;0.70;;;;;;;;;;6254626;28;20282;-78
2024/04/06 02:19:06;;;;;;;0.53;0.50;;;;;;;;;;6262804;28;20325;-79
2024/04/06 02:22:06;;;;;;;0.73;0.60;;;;;;;;;;6224891;28;20022;-80
2024/04/06 02:25:07;;;;;;;0.70;0.70;;;;;;;;;;6228537;28;20032;-79
2024/04/06 02:28:07;;;;;;;1.35;0.73;;;;;;;;;;6260711;28;20285;-78
2024/04/06 02:31:10;;;;;;;1.07;0.70;;;;;;;;;;6251638;28;20013;-79
2024/04/06 02:34:10;;;;;;;1.10;0.70;;;;;;;;;;6263442;28;20347;-78
2024/04/06 02:37:10;;;;;;;0.60;0.60;;;;;;;;;;6254480;28;20045;-79
2024/04/06 02:40:11;;;;;;;0.70;0.50;;;;;;;;;;6260375;28;20792;-82
2024/04/06 02:43:11;;;;;;;0.52;0.47;;;;;;;;;;6258717;28;20037;-82
2024/04/06 02:46:12;;;;;;;0.87;0.60;;;;;;;;;;6255403;28;20029;-83
2024/04/06 02:49:12;;;;;;;0.70;0.57;;;;;;;;;;6256992;28;20477;-82
2024/04/06 02:52:13;;;;;;;0.40;0.40;;;;;;;;;;6244783;28;20104;-82
2024/04/06 02:55:13;;;;;;;0.80;0.40;;;;;;;;;;6257089;28;20055;-82
2024/04/06 02:58:14;;;;;;;0.70;0.50;;;;;;;;;;6255449;28;20029;-83
2024/04/06 03:01:14;;;;;;;0.50;0.47;;;;;;;;;;6258119;28;20489;-83
2024/04/06 03:04:14;;;;;;;0.50;0.40;;;;;;;;;;6250928;28;20547;-83
2024/04/06 03:07:14;;;;;;;0.43;0.43;;;;;;;;;;6259257;28;20032;-82
2024/04/06 03:10:15;;;;;;;0.40;0.40;;;;;;;;;;6264847;28;20134;-83
2024/04/06 03:13:15;;;;;;;0.60;0.52;;;;;;;;;;6258814;28;20029;-83
2024/04/06 03:16:16;;;;;;;0.50;0.50;;;;;;;;;;6260748;28;20436;-82
2024/04/06 03:19:16;;;;;;;0.60;0.50;;;;;;;;;;6264421;28;20021;-82
2024/04/06 03:22:16;;;;;;;0.60;0.50;;;;;;;;;;6255628;28;21354;-83
2024/04/06 03:25:16;;;;;;;1.53;0.57;;;;;;;;;;6266864;28;20030;-82
2024/04/06 03:28:18;;;;;;;0.83;0.57;;;;;;;;;;6239595;28;20472;-82
2024/04/06 03:31:19;;;;;;;0.52;0.52;;;;;;;;;;6258131;28;20037;-83
2024/04/06 03:34:19;;;;;;;0.47;0.40;;;;;;;;;;6260124;28;20044;-83
2024/04/06 03:37:20;;;;;;;0.83;0.63;;;;;;;;;;6268469;28;20049;-83
2024/04/06 03:40:20;;;;;;;;;;;;;;;;;;6268555;28;20024;-83
2024/04/06 03:43:20;;;;;;;0.47;0.40;;;;;;;;;;6258806;28;19909;-82
2024/04/06 03:46:21;;;;;;;0.40;0.40;;;;;;;;;;6264918;28;20032;-82
2024/04/06 03:49:22;;;;;;;2.70;0.50;;;;;;;;;;6260081;28;20040;-79
2024/04/06 03:52:22;;;;;;;0.55;0.40;;;;;;;;;;6262936;28;20063;-80
2024/04/06 03:55:22;;;;;;;0.43;0.40;;;;;;;;;;6266344;28;20028;-78
2024/04/06 03:58:22;;;;;;;0.60;0.50;;;;;;;;;;6267306;28;20528;-79
2024/04/06 04:01:23;;;;;;;0.63;0.40;;;;;;;;;;6264962;28;20047;-79
2024/04/06 04:04:23;;;;;;;2.40;0.50;;;;;;;;;;6251680;28;20017;-79
2024/04/06 04:07:23;;;;;;;0.60;0.40;;;;;;;;;;6248620;28;20024;-79
2024/04/06 04:10:24;;;;;;;0.47;0.40;;;;;;;;;;6255640;28;20022;-79
2024/04/06 04:13:24;;;;;;;0.90;0.50;;;;;;;;;;6268688;28;20025;-79
2024/04/06 04:16:24;;;;;;;0.63;0.50;;;;;;;;;;6257618;28;20076;-79
2024/04/06 04:19:24;;;;;;;1.30;0.50;;;;;;;;;;6262233;28;20021;-79
2024/04/06 04:22:25;;;;;;;0.47;0.47;;;;;;;;;;6263781;28;20595;-79
2024/04/06 04:25:25;;;;;;;1.67;0.50;;;;;;;;;;6271272;28;20466;-78
2024/04/06 04:28:25;;;;;;;0.40;0.40;;;;;;;;;;6260457;28;20033;-79
2024/04/06 04:31:25;;;;;;;0.47;0.47;;;;;;;;;;6271276;28;20079;-79
2024/04/06 04:34:25;;;;;;;0.67;0.47;;;;;;;;;;6249880;28;20092;-79
2024/04/06 04:37:26;;;;;;;1.33;0.57;;;;;;;;;;6259218;28;20041;-79
2024/04/06 04:40:27;;;;;;;0.68;0.60;;;;;;;;;;6265988;28;20029;-79
2024/04/06 04:43:27;;;;;;;1.73;0.50;;;;;;;;;;6258020;28;20489;-79
2024/04/06 04:46:27;;;;;;;1.00;0.50;;;;;;;;;;6266232;28;20020;-79
2024/04/06 04:49:28;;;;;;;0.45;0.40;;;;;;;;;;6271425;28;20024;-79
2024/04/06 04:52:28;;;;;;;0.50;0.50;;;;;;;;;;6245924;28;20029;-79
2024/04/06 04:55:28;;;;;;;0.50;0.50;;;;;;;;;;6254405;28;20475;-79
2024/04/06 04:58:28;;;;;;;0.93;0.60;;;;;;;;;;6260830;28;20387;-83
2024/04/06 05:01:29;;;;;;;1.10;0.50;;;;;;;;;;6261897;28;20531;-83
2024/04/06 05:04:29;;;;;;;0.50;0.50;;;;;;;;;;6261998;28;20454;-82
2024/04/06 05:07:29;;;;;;;0.40;0.40;;;;;;;;;;6260087;28;20021;-81
2024/04/06 05:10:30;;;;;;;0.40;0.40;;;;;;;;;;6263000;28;20016;-82
2024/04/06 05:13:30;;;;;;;0.38;0.35;;;;;;;;;;6262936;28;20036;-83
2024/04/06 05:16:31;;;;;;;0.40;0.40;;;;;;;;;;6261030;28;20036;-79
2024/04/06 05:19:31;;;;;;;0.47;0.47;;;;;;;;;;6264347;28;20557;-79
2024/04/06 05:22:32;;;;;;;0.40;0.40;;;;;;;;;;6256942;28;20514;-79
2024/04/06 05:25:32;;;;;;;1.67;0.60;;;;;;;;;;6249009;28;20021;-79
2024/04/06 05:28:32;;;;;;;1.02;0.40;;;;;;;;;;6267947;28;20470;-80
2024/04/06 05:31:33;;;;;;;1.00;0.50;;;;;;;;;;6260261;28;20066;-80
2024/04/06 05:34:33;;;;;;;0.43;0.33;;;;;;;;;;6257796;28;20082;-78
2024/04/06 05:37:33;;;;;;;0.90;0.60;;;;;;;;;;6267404;28;20291;-75
2024/04/06 05:40:40;;;;;;;2.20;0.50;;;;;;;;;;6264179;28;20065;-76
2024/04/06 05:43:40;;;;;;;0.50;0.43;;;;;;;;;;6261488;28;20056;-77
2024/04/06 05:46:40;;;;;;;0.40;0.37;;;;;;;;;;6262650;28;20497;-77
2024/04/06 05:49:41;;;;;;;1.20;0.77;;;;;;;;;;6258972;28;20541;-76
2024/04/06 05:52:41;;;;;;;2.83;1.47;;;;;;;;;;6254647;28;20036;-76
2024/04/06 05:55:41;;;;;;;1.43;1.00;;;;;;;;;;6257694;28;20025;-76
2024/04/06 05:58:41;;;;;;;1.27;0.83;;;;;;;;;;6253647;28;20021;-76
2024/04/06 06:01:41;;;;;;;;;;;;;;;;;;6256861;28;20018;-76
2024/04/06 06:04:42;;;;;;;0.93;0.52;;;;;;;;;;6264900;28;19908;-76
2024/04/06 06:07:42;;;;;;;0.73;0.63;;;;;;;;;;6259620;28;20033;-77
2024/04/06 06:10:43;;;;;;;3.10;0.60;;;;;;;;;;6258157;28;20425;-77
2024/04/06 06:13:43;;;;;;;1.10;0.50;;;;;;;;;;6262769;28;20083;-77
2024/04/06 06:16:44;;;;;;;1.40;0.70;;;;;;;;;;6257704;28;20458;-77
2024/04/06 06:19:44;;;;;;;;;;;;;;;;;;6263553;28;20083;-78
2024/04/06 06:22:44;;;;;;;0.40;0.40;;;;;;;;;;6256666;28;19915;-78
2024/04/06 06:25:44;;;;;;;0.57;0.47;;;;;;;;;;6262102;28;20021;-78
2024/04/06 06:28:45;;;;;;;;;;;;;;;;;;6255715;28;20029;-77
2024/04/06 06:31:45;;;;;;;0.82;0.50;;;;;;;;;;6258445;28;20292;-78
2024/04/06 06:34:45;;;;;;;;;;;;;;;;;;6252381;28;20037;-78
2024/04/06 06:37:46;;;;;;;0.73;0.43;;;;;;;;;;6248556;28;20365;-77
2024/04/06 06:40:46;;;;;;;0.47;0.40;;;;;;;;;;6255587;28;20032;-76
2024/04/06 06:43:47;;;;;;;;;;;;;;;;;;6257986;28;20033;-75
2024/04/06 06:46:48;;;;;;;0.57;0.40;;;;;;;;;;6264641;28;19971;-76
2024/04/06 06:49:48;;;;;;;;;;;;;;;;;;6251909;28;20462;-76
2024/04/06 06:52:48;;;;;;;4.88;0.57;;;;;;;;;;6256682;28;20260;-77
2024/04/06 06:55:49;;;;;;;;;;;;;;;;;;6258557;28;20039;-76
2024/04/06 06:58:49;;;;;;;0.80;0.40;;;;;;;;;;6267103;28;19909;-77
2024/04/06 07:01:49;;;;;;;;;;;;;;;;;;6256551;28;20290;-77
2024/04/06 07:04:49;;;;;;;1.13;0.50;;;;;;;;;;6257795;28;19913;-77
2024/04/06 07:07:49;;;;;;;;;;;;;;;;;;6254980;28;20481;-77
2024/04/06 07:10:50;;;;;;;2.38;1.08;;;;;;;;;;6256681;28;19913;-77
2024/04/06 07:13:50;;;;;;;;;;;;;;;;;;6259167;28;20033;-77
2024/04/06 07:16:51;;;;;;;1.65;0.93;;;;;;;;;;6267985;28;19951;-77
2024/04/06 07:19:51;;;;;;;0.97;0.63;;;;;;;;;;6249024;28;20025;-76
2024/04/06 07:22:51;;;;;;;;;;;;;;;;;;6259566;28;20279;-76
2024/04/06 07:25:52;;;;;;;0.63;0.60;;;;;;;;;;6246861;28;19913;-76
2024/04/06 07:28:52;;;;;;;2.15;0.70;;;;;;;;;;6261661;28;20158;-76
2024/04/06 07:31:52;;;;;;;0.93;0.80;;;;;;;;;;6262826;28;20012;-76
2024/04/06 07:34:52;;;;;;;0.90;0.73;;;;;;;;;;6236295;28;20300;-76
2024/04/06 07:37:53;;;;;;;1.27;1.13;;;;;;;;;;6253079;28;20030;-76
2024/04/06 07:40:57;;;;;;;1.60;1.15;;;;;;;;;;6247762;28;20112;-76
2024/04/06 07:43:57;;;;;;;1.45;1.08;;;;;;;;;;6251950;28;20020;-72
2024/04/06 07:46:58;;;;;;;1.42;1.02;;;;;;;;;;6259861;28;20020;-74
2024/04/06 07:49:58;;;;;;;1.17;1.00;;;;;;;;;;6261967;28;20052;-81
2024/04/06 07:52:58;;;;;;;1.70;1.33;;;;;;;;;;6254714;28;20022;-73
2024/04/06 07:55:58;;;;;;;1.27;1.00;;;;;;;;;;6261534;28;20295;-75
2024/04/06 07:58:59;;;;;;;2.23;1.10;;;;;;;;;;6259571;28;20484;-75
2024/04/06 08:01:59;;;;;;;1.23;1.00;;;;;;;;;;6266442;28;20745;-76
2024/04/06 08:04:59;;;;;;;2.00;1.30;;;;;;;;;;6265889;28;20805;-77
2024/04/06 08:07:59;;;;;;;1.73;1.15;;;;;;;;;;6247732;28;20788;-76
2024/04/06 08:11:00;;;;;;;1.60;1.00;;;;;;;;;;6251343;28;20082;-75
2024/04/06 08:14:00;;;;;;;1.98;1.20;;;;;;;;;;6247601;28;20323;-76
2024/04/06 08:17:01;;;;;;;1.30;1.00;;;;;;;;;;6251708;28;20021;-72
2024/04/06 08:20:02;;;;;;;2.85;1.27;;;;;;;;;;6254807;28;20275;-76
2024/04/06 08:23:03;;;;;;;2.92;1.27;;;;;;;;;;6267599;28;20067;-78
2024/04/06 08:26:03;;;;;;;1.83;1.20;;;;;;;;;;6261779;28;20030;-74
2024/04/06 08:29:03;;;;;;;1.92;1.38;;;;;;;;;;6260887;28;20099;-72
2024/04/06 08:32:04;;;;;;;2.23;1.20;;;;;;;;;;6260589;28;20026;-73
2024/04/06 08:35:04;;;;;;;1.15;0.88;;;;;;;;;;6248800;28;20756;-73
2024/04/06 08:38:05;;;;;;;1.77;1.20;;;;;;;;;;6261821;28;20043;-73
2024/04/06 08:41:09;;;;;;;2.08;0.90;;;;;;;;;;6262998;28;20037;-72
2024/04/06 08:44:11;;;;;;;2.42;1.25;;;;;;;;;;6255780;28;20386;-73
2024/04/06 08:47:13;;;;;;;1.10;0.70;;;;;;;;;;6266815;28;20029;-72
2024/04/06 08:50:14;;;;;;;1.30;0.93;;;;;;;;;;6258560;28;20029;-74
2024/04/06 08:53:14;;;;;;;2.70;1.05;;;;;;;;;;6259992;28;20535;-73
2024/04/06 08:56:15;;;;;;;1.40;0.83;;;;;;;;;;6271577;28;20078;-78
2024/04/06 08:59:15;;;;;;;1.80;1.00;;;;;;;;;;6251621;28;20281;-72
2024/04/06 09:02:15;;;;;;;0.90;0.77;;;;;;;;;;6270728;28;20028;-78
2024/04/06 09:05:15;;;;;;;1.93;0.80;;;;;;;;;;6258524;28;20268;-73
2024/04/06 09:08:16;;;;;;;1.05;0.75;;;;;;;;;;6262161;28;20272;-79
2024/04/06 09:11:16;;;;;;;2.73;1.00;;;;;;;;;;6255177;28;20033;-73
2024/04/06 09:14:16;;;;;;;1.80;0.90;;;;;;;;;;6258310;28;20276;-72
2024/04/06 09:17:17;;;;;;;1.58;1.13;;;;;;;;;;6261748;28;20045;-78
2024/04/06 09:20:17;;;;;;;1.23;0.98;;;;;;;;;;6261077;28;20025;-72
2024/04/06 09:23:18;;;;;;;1.37;0.93;;;;;;;;;;6261516;28;20470;-73
2024/04/06 09:26:22;;;;;;;1.52;0.85;;;;;;;;;;6266814;28;20272;-72
2024/04/06 09:29:22;;;;;;;0.98;0.82;;;;;;;;;;6257979;28;20032;-74
2024/04/06 09:32:24;;;;;;;1.13;0.70;;;;;;;;;;6255948;28;20447;-76
2024/04/06 09:35:24;;;;;;;1.67;0.80;;;;;;;;;;6245134;28;20080;-73
2024/04/06 09:38:25;;;;;;;1.15;0.70;;;;;;;;;;6252823;28;20433;-72
2024/04/06 09:41:26;;;;;;;1.15;0.80;;;;;;;;;;6249652;28;20029;-72
2024/04/06 09:44:26;;;;;;;0.75;0.68;;;;;;;;;;6259589;28;20047;-73
2024/04/06 09:47:27;;;;;;;0.55;0.50;;;;;;;;;;6258349;28;20029;-72
2024/04/06 09:50:32;;;;;;;0.95;0.60;;;;;;;;;;6253874;28;20041;-71
2024/04/06 09:53:34;;;;;;;1.33;0.80;;;;;;;;;;6260938;28;20053;-76
2024/04/06 09:56:35;;;;;;;0.93;0.70;;;;;;;;;;6251491;28;20045;-73
2024/04/06 09:59:35;;;;;;;0.93;0.60;;;;;;;;;;6232335;28;20049;-73
2024/04/06 10:02:36;;;;;;;0.90;0.68;;;;;;;;;;6257480;28;20486;-72
2024/04/06 10:05:38;;;;;;;0.95;0.70;;;;;;;;;;6258490;28;20394;-72
2024/04/06 10:09:10;;;;;;;1.08;0.50;;;;;;;;;;6251621;28;20037;-77
2024/04/06 10:12:10;;;;;;;1.10;0.70;;;;;;;;;;6252624;28;20029;-72
2024/04/06 10:15:15;;;;;;;1.27;0.70;;;;;;;;;;6254933;28;20447;-73
2024/04/06 10:18:15;;;;;;;1.13;0.80;;;;;;;;;;6268938;28;20287;-72
2024/04/06 10:21:18;;;;;;;1.17;1.00;;;;;;;;;;6257990;28;20029;-73
2024/04/06 10:24:19;;;;;;;1.48;0.88;;;;;;;;;;6257540;28;20037;-74
2024/04/06 10:27:25;;;;;;;2.45;0.93;;;;;;;;;;6258656;28;20493;-77
2024/04/06 10:30:25;;;;;;;0.73;0.73;;;;;;;;;;6254593;28;20044;-77
2024/04/06 10:33:25;;;;;;;2.17;0.70;;;;;;;;;;6249089;28;20116;-77
2024/04/06 10:36:26;;;;;;;1.37;0.77;;;;;;;;;;6256433;28;20506;-77
2024/04/06 10:39:27;;;;;;;1.40;0.83;;;;;;;;;;6260753;28;20822;-77
2024/04/06 10:42:27;;;;;;;0.95;0.85;;;;;;;;;;6262272;28;20274;-76
2024/04/06 10:45:27;;;;;;;1.30;0.88;;;;;;;;;;6254919;28;20032;-78
2024/04/06 10:48:28;;;;;;;0.70;0.67;;;;;;;;;;6247065;28;20506;-80
2024/04/06 10:51:28;;;;;;;0.85;0.60;;;;;;;;;;6257034;28;20811;-79
2024/04/06 10:54:28;;;;;;;1.53;0.73;;;;;;;;;;6251140;28;20041;-79
2024/04/06 10:57:29;;;;;;;0.73;0.60;;;;;;;;;;6254453;28;20079;-79
2024/04/06 11:00:31;;;;;;;0.98;0.60;;;;;;;;;;6260998;28;20483;-80
2024/04/06 11:03:33;;;;;;;0.63;0.60;;;;;;;;;;6257998;28;20506;-79
2024/04/06 11:06:34;;;;;;;1.02;0.80;;;;;;;;;;6253373;28;20441;-79
2024/04/06 11:09:34;;;;;;;0.80;0.70;;;;;;;;;;6258020;28;20108;-80
2024/04/06 11:12:36;;;;;;;1.00;0.57;;;;;;;;;;6261596;28;20541;-80
2024/04/06 11:15:36;;;;;;;1.10;0.55;;;;;;;;;;6257383;28;20040;-80
2024/04/06 11:18:40;;;;;;;1.30;0.60;;;;;;;;;;6268288;28;20025;-80
2024/04/06 11:21:40;;;;;;;0.50;0.50;;;;;;;;;;6257851;28;20322;-80
2024/04/06 11:24:40;;;;;;;0.97;0.67;;;;;;;;;;6265479;28;20053;-79
2024/04/06 11:27:51;;;;;;;1.15;0.68;;;;;;;;;;6252333;28;20056;-80
2024/04/06 11:30:53;;;;;;;0.52;0.52;;;;;;;;;;6259592;28;20462;-81
2024/04/06 11:33:54;;;;;;;1.15;0.60;;;;;;;;;;6252968;28;20479;-80
2024/04/06 11:36:54;;;;;;;1.38;0.98;;;;;;;;;;6251146;28;20073;-81
2024/04/06 11:39:55;;;;;;;1.55;0.85;;;;;;;;;;6256515;28;20036;-81
2024/04/06 11:42:55;;;;;;;1.75;1.38;;;;;;;;;;6258996;28;20017;-81
2024/04/06 11:45:56;;;;;;;1.30;0.93;;;;;;;;;;6263663;28;20060;-80
2024/04/06 11:48:56;;;;;;;1.35;0.88;;;;;;;;;;6266969;28;20479;-80
2024/04/06 11:51:56;;;;;;;0.50;0.50;;;;;;;;;;6253304;28;20036;-80
2024/04/06 11:54:56;;;;;;;0.73;0.70;;;;;;;;;;6265666;28;20017;-80
2024/04/06 11:57:57;;;;;;;1.07;0.80;;;;;;;;;;6267277;28;20302;-80
2024/04/06 12:00:57;;;;;;;2.40;0.80;;;;;;;;;;6263841;28;20456;-80
2024/04/06 12:03:57;;;;;;;1.08;0.60;;;;;;;;;;6265166;28;20897;-80
2024/04/06 12:06:58;;;;;;;0.90;0.50;;;;;;;;;;6268673;28;20527;-80
2024/04/06 12:09:58;;;;;;;0.65;0.60;;;;;;;;;;6264937;28;20024;-80
2024/04/06 12:12:59;;;;;;;0.75;0.52;;;;;;;;;;6257541;28;20385;-80
2024/04/06 12:15:59;;;;;;;0.87;0.50;;;;;;;;;;6266632;28;20031;-80
2024/04/06 12:19:00;;;;;;;0.60;0.60;;;;;;;;;;6265851;28;20020;-80
2024/04/06 12:22:00;;;;;;;0.70;0.70;;;;;;;;;;6268199;28;20040;-80
2024/04/06 12:25:01;;;;;;;0.70;0.70;;;;;;;;;;6263546;28;20025;-80
2024/04/06 12:28:02;;;;;;;0.77;0.63;;;;;;;;;;6268401;28;20679;-80
2024/04/06 12:31:02;;;;;;;0.75;0.55;;;;;;;;;;6258302;28;20055;-80
2024/04/06 12:34:02;;;;;;;1.13;1.02;;;;;;;;;;6261552;28;20075;-81
2024/04/06 12:37:03;;;;;;;0.60;0.60;;;;;;;;;;6262790;28;20049;-80
2024/04/06 12:40:03;;;;;;;0.57;0.57;;;;;;;;;;6255794;28;20033;-80
2024/04/06 12:43:04;;;;;;;0.98;0.60;;;;;;;;;;6273308;28;20087;-80
2024/04/06 12:46:04;;;;;;;0.60;0.57;;;;;;;;;;6265819;28;20025;-80
2024/04/06 12:49:04;;;;;;;1.07;0.77;;;;;;;;;;6262855;28;20024;-80
2024/04/06 12:52:04;;;;;;;1.67;0.73;;;;;;;;;;6257871;28;20267;-80
2024/04/06 12:55:05;;;;;;;0.90;0.63;;;;;;;;;;6264759;28;20036;-80
2024/04/06 12:58:05;;;;;;;1.83;0.82;;;;;;;;;;6262139;28;20049;-80
2024/04/06 13:01:06;;;;;;;1.73;0.93;;;;;;;;;;6267818;28;20462;-80
2024/04/06 13:04:06;;;;;;;2.00;0.80;;;;;;;;;;6262920;28;20068;-81
2024/04/06 13:07:06;;;;;;;0.60;0.60;;;;;;;;;;6266342;28;20533;-81
2024/04/06 13:10:07;;;;;;;1.33;0.50;;;;;;;;;;6270830;28;20616;-80
2024/04/06 13:13:07;;;;;;;0.82;0.45;;;;;;;;;;6254737;28;20032;-80
2024/04/06 13:16:07;;;;;;;0.30;0.30;;;;;;;;;;6264173;28;20021;-80
2024/04/06 13:19:08;;;;;;;0.40;0.40;;;;;;;;;;6256326;28;20833;-80
2024/04/06 13:22:08;;;;;;;0.57;0.32;;;;;;;;;;6254376;28;20628;-80
2024/04/06 13:25:09;;;;;;;0.50;0.40;;;;;;;;;;6259595;28;20032;-80
2024/04/06 13:28:09;;;;;;;0.65;0.28;;;;;;;;;;6268081;28;20317;-80
2024/04/06 13:31:11;;;;;;;0.38;0.28;;;;;;;;;;6262007;28;20494;-80
2024/04/06 13:34:11;;;;;;;0.40;0.30;;;;;;;;;;6253913;28;20122;-80
2024/04/06 13:37:12;;;;;;;0.60;0.40;;;;;;;;;;6261495;28;20048;-80
2024/04/06 13:40:14;;;;;;;0.30;0.30;;;;;;;;;;6255011;28;20484;-80
2024/04/06 13:43:14;;;;;;;0.30;0.30;;;;;;;;;;6268171;28;20275;-80
2024/04/06 13:46:14;;;;;;;0.93;0.30;;;;;;;;;;6266216;28;20021;-80
2024/04/06 13:49:14;;;;;;;0.40;0.40;;;;;;;;;;6263982;28;20033;-80
2024/04/06 13:52:15;;;;;;;0.40;0.40;;;;;;;;;;6268665;28;20071;-80
2024/04/06 13:55:15;;;;;;;0.27;0.27;;;;;;;;;;6257128;28;20356;-80
2024/04/06 13:58:15;;;;;;;0.60;0.40;;;;;;;;;;6261228;28;20263;-80
2024/04/06 14:01:16;;;;;;;0.52;0.40;;;;;;;;;;6269387;28;20283;-80
2024/04/06 14:04:17;;;;;;;0.40;0.40;;;;;;;;;;6267357;28;20123;-80
2024/04/06 14:07:17;;;;;;;0.52;0.40;;;;;;;;;;6260127;28;20028;-80
2024/04/06 14:10:18;;;;;;;1.35;0.50;;;;;;;;;;6265595;28;20490;-80
2024/04/06 14:13:18;;;;;;;0.30;0.30;;;;;;;;;;6260993;28;20063;-80
2024/04/06 14:16:18;;;;;;;0.40;0.40;;;;;;;;;;6254270;28;20025;-80
2024/04/06 14:19:21;;;;;;;0.33;0.30;;;;;;;;;;6262188;28;20490;-79
2024/04/06 14:22:21;;;;;;;0.30;0.30;;;;;;;;;;6259976;28;20356;-78
2024/04/06 14:25:21;;;;;;;0.37;0.37;;;;;;;;;;6256684;28;20021;-77
2024/04/06 14:28:22;;;;;;;0.30;0.30;;;;;;;;;;6263934;28;20260;-77
2024/04/06 14:31:22;;;;;;;0.38;0.25;;;;;;;;;;6265728;28;20743;-77
2024/04/06 14:34:23;;;;;;;1.00;0.50;;;;;;;;;;6251224;28;20116;-78
2024/04/06 14:37:23;;;;;;;0.50;0.50;;;;;;;;;;6263784;28;20096;-77
2024/04/06 14:40:23;;;;;;;0.70;0.57;;;;;;;;;;6262355;28;20480;-77
2024/04/06 14:43:25;;;;;;;0.60;0.60;;;;;;;;;;6256893;28;20370;-77
2024/04/06 14:46:25;;;;;;;0.50;0.40;;;;;;;;;;6259300;28;20056;-77
2024/04/06 14:49:25;;;;;;;0.70;0.40;;;;;;;;;;6252344;28;20029;-78
2024/04/06 14:52:26;;;;;;;0.30;0.30;;;;;;;;;;6259528;28;20075;-78
2024/04/06 14:55:26;;;;;;;0.55;0.40;;;;;;;;;;6267375;28;20029;-78
2024/04/06 14:58:26;;;;;;;5.03;0.60;;;;;;;;;;6268155;28;20454;-78
2024/04/06 15:01:26;;;;;;;0.40;0.40;;;;;;;;;;6263006;28;20034;-78
2024/04/06 15:04:27;;;;;;;0.70;0.40;;;;;;;;;;6252051;28;20102;-78
2024/04/06 15:07:27;;;;;;;0.30;0.30;;;;;;;;;;6263030;28;20086;-78
2024/04/06 15:10:27;;;;;;;0.70;0.40;;;;;;;;;;6266099;28;20350;-78
2024/04/06 15:13:27;;;;;;;0.50;0.30;;;;;;;;;;6256350;28;20037;-78
2024/04/06 15:16:28;;;;;;;0.43;0.37;;;;;;;;;;6260416;28;20136;-77
2024/04/06 15:19:28;;;;;;;0.45;0.45;;;;;;;;;;6262862;28;20100;-77
2024/04/06 15:22:28;;;;;;;0.40;0.30;;;;;;;;;;6264620;28;20056;-78
2024/04/06 15:25:29;;;;;;;0.60;0.30;;;;;;;;;;6267535;28;20279;-77
2024/04/06 15:28:29;;;;;;;0.43;0.43;;;;;;;;;;6247943;28;20283;-77
2024/04/06 15:31:29;;;;;;;0.50;0.30;;;;;;;;;;6248059;28;20028;-77
2024/04/06 15:34:30;;;;;;;0.40;0.30;;;;;;;;;;6253291;28;20025;-77
2024/04/06 15:37:30;;;;;;;0.40;0.40;;;;;;;;;;6266790;28;20279;-77
2024/04/06 15:40:32;;;;;;;0.50;0.50;;;;;;;;;;6265866;28;20316;-77
2024/04/06 15:43:32;;;;;;;0.45;0.40;;;;;;;;;;6272911;28;20039;-77
2024/04/06 15:46:32;;;;;;;0.40;0.40;;;;;;;;;;6263005;28;20565;-77
2024/04/06 15:49:32;;;;;;;0.83;0.57;;;;;;;;;;6262997;28;20108;-77
2024/04/06 15:52:33;;;;;;;0.57;0.55;;;;;;;;;;6271078;28;20037;-77
2024/04/06 15:55:34;;;;;;;0.93;0.55;;;;;;;;;;6262041;28;20132;-77
2024/04/06 15:58:35;;;;;;;1.38;0.50;;;;;;;;;;6269977;28;20104;-78
2024/04/06 16:01:36;;;;;;;0.40;0.40;;;;;;;;;;6272070;28;20375;-78
2024/04/06 16:04:37;;;;;;;0.63;0.40;;;;;;;;;;6270039;28;20033;-77
2024/04/06 16:07:38;;;;;;;0.43;0.40;;;;;;;;;;6260356;28;20131;-77
2024/04/06 16:10:39;;;;;;;0.95;0.32;;;;;;;;;;6252563;28;20682;-77
2024/04/06 16:13:40;;;;;;;0.40;0.40;;;;;;;;;;6267517;28;20041;-77
2024/04/06 16:16:41;;;;;;;0.80;0.30;;;;;;;;;;6274186;28;20425;-77
2024/04/06 16:19:41;;;;;;;0.40;0.40;;;;;;;;;;6265737;28;20025;-76
2024/04/06 16:22:42;;;;;;;1.55;0.50;;;;;;;;;;6264752;28;20268;-77
2024/04/06 16:25:42;;;;;;;0.63;0.50;;;;;;;;;;6262692;28;20082;-76
2024/04/06 16:28:42;;;;;;;0.30;0.30;;;;;;;;;;6260445;28;20112;-76
2024/04/06 16:31:43;;;;;;;0.40;0.30;;;;;;;;;;6271330;28;20270;-76
2024/04/06 16:34:43;;;;;;;0.57;0.50;;;;;;;;;;6268868;28;20037;-76
2024/04/06 16:37:45;;;;;;;0.87;0.50;;;;;;;;;;6264402;28;20657;-80
2024/04/06 16:40:45;;;;;;;0.90;0.60;;;;;;;;;;6255854;28;20264;-75
2024/04/06 16:43:46;;;;;;;1.15;0.80;;;;;;;;;;6270963;28;20419;-76
2024/04/06 16:46:46;;;;;;;0.95;0.65;;;;;;;;;;6256364;28;20111;-76
2024/04/06 16:49:46;;;;;;;0.80;0.73;;;;;;;;;;6259793;28;20036;-76
2024/04/06 16:52:47;;;;;;;0.70;0.70;;;;;;;;;;6270335;28;20024;-78
2024/04/06 16:55:47;;;;;;;1.20;0.65;;;;;;;;;;6270099;28;20116;-76
2024/04/06 16:58:47;;;;;;;1.17;0.82;;;;;;;;;;6251180;28;20466;-76
2024/04/06 17:01:48;;;;;;;1.27;1.03;;;;;;;;;;6264639;28;20113;-76
2024/04/06 17:04:49;;;;;;;1.77;0.80;;;;;;;;;;6257478;28;20028;-76
2024/04/06 17:07:49;;;;;;;0.95;0.90;;;;;;;;;;6251419;28;20453;-77
2024/04/06 17:10:49;;;;;;;0.80;0.73;;;;;;;;;;6256645;28;20390;-77
2024/04/06 17:13:49;;;;;;;1.15;0.70;;;;;;;;;;6261911;28;20069;-78
2024/04/06 17:16:50;;;;;;;2.30;1.10;;;;;;;;;;6261805;28;20470;-76
2024/04/06 17:19:50;;;;;;;1.10;1.00;;;;;;;;;;6261020;28;20469;-75
2024/04/06 17:22:50;;;;;;;0.97;0.90;;;;;;;;;;6260665;28;20033;-76
2024/04/06 17:25:51;;;;;;;1.70;1.20;;;;;;;;;;6265507;28;20774;-75
2024/04/06 17:28:51;;;;;;;2.47;0.93;;;;;;;;;;6263265;28;20024;-77
2024/04/06 17:31:52;;;;;;;0.93;0.80;;;;;;;;;;6266083;28;20071;-80
2024/04/06 17:34:52;;;;;;;1.20;0.70;;;;;;;;;;6261953;28;20037;-82
2024/04/06 17:37:55;;;;;;;0.80;0.80;;;;;;;;;;6258202;28;20046;-80
2024/04/06 17:40:55;;;;;;;0.70;0.60;;;;;;;;;;6270203;28;20476;-79
2024/04/06 17:43:56;;;;;;;1.20;1.00;;;;;;;;;;6247299;28;20053;-80
2024/04/06 17:46:56;;;;;;;1.42;1.13;;;;;;;;;;6246473;28;20676;-83
2024/04/06 17:49:56;;;;;;;2.23;1.00;;;;;;;;;;6243585;28;20055;-81
2024/04/06 17:52:57;;;;;;;0.80;0.80;;;;;;;;;;6238010;28;20040;-79
2024/04/06 17:55:57;;;;;;;1.00;0.90;;;;;;;;;;6265318;28;20040;-79
2024/04/06 17:58:57;;;;;;;2.40;1.20;;;;;;;;;;6262581;28;20293;-81
2024/04/06 18:01:57;;;;;;;1.88;1.30;;;;;;;;;;6252226;28;20282;-84
2024/04/06 18:04:58;;;;;;;1.00;0.90;;;;;;;;;;6249905;28;20029;-79
2024/04/06 18:07:59;;;;;;;1.83;1.08;;;;;;;;;;6249738;28;20025;-79